createdAt,value
2018-03-22T00:01:43.755Z,5.70
2018-03-22T00:04:11.203Z,5.17
2018-03-22T00:06:39.495Z,5.33
2018-03-22T00:09:06.982Z,5.30
2018-03-22T00:11:34.442Z,5.57
2018-03-22T00:14:02.131Z,5.30
2018-03-22T00:16:29.568Z,5.57
2018-03-22T00:18:57.053Z,5.53
2018-03-22T00:21:24.999Z,5.43
2018-03-22T00:23:52.521Z,5.70
2018-03-22T00:26:19.985Z,6.13
2018-03-22T00:28:47.433Z,5.23
2018-03-22T00:31:14.888Z,5.10
2018-03-22T00:33:42.360Z,5.27
2018-03-22T00:36:10.603Z,6.10
2018-03-22T00:38:38.093Z,5.37
2018-03-22T00:41:05.540Z,5.40
2018-03-22T00:43:33.012Z,5.57
2018-03-22T00:46:00.472Z,5.30
2018-03-22T00:48:27.983Z,5.40
2018-03-22T00:50:55.423Z,5.50
2018-03-22T00:53:23.003Z,5.60
2018-03-22T00:55:50.488Z,6.20
2018-03-22T00:58:36.665Z,5.50
2018-03-22T01:01:04.141Z,5.63
2018-03-22T01:03:31.609Z,6.67
2018-03-22T01:05:59.061Z,6.13
2018-03-22T01:08:26.502Z,5.97
2018-03-22T01:10:53.955Z,5.93
2018-03-22T01:13:21.444Z,7.30
2018-03-22T01:15:48.918Z,6.57
2018-03-22T01:18:16.370Z,5.80
2018-03-22T01:20:43.830Z,6.30
2018-03-22T01:23:11.310Z,7.10
2018-03-22T01:25:38.776Z,6.00
2018-03-22T01:28:06.249Z,6.27
2018-03-22T01:30:44.287Z,6.20
2018-03-22T01:33:11.772Z,6.60
2018-03-22T01:35:39.244Z,7.13
2018-03-22T01:38:06.701Z,6.87
2018-03-22T01:40:34.137Z,6.70
2018-03-22T01:43:01.687Z,7.80
2018-03-22T01:45:29.143Z,6.50
2018-03-22T01:47:56.593Z,6.17
2018-03-22T01:50:24.034Z,6.47
2018-03-22T01:53:03.299Z,6.33
2018-03-22T01:55:31.569Z,6.67
2018-03-22T01:57:59.042Z,6.73
2018-03-22T02:00:26.529Z,6.23
2018-03-22T02:02:53.997Z,6.20
2018-03-22T02:05:21.469Z,6.73
2018-03-22T02:07:49.195Z,6.47
2018-03-22T02:10:16.638Z,7.10
2018-03-22T02:12:44.092Z,6.43
2018-03-22T02:15:11.596Z,6.90
2018-03-22T02:17:39.122Z,6.10
2018-03-22T02:20:06.607Z,6.43
2018-03-22T02:22:34.072Z,6.30
2018-03-22T02:25:01.525Z,7.50
2018-03-22T02:27:28.980Z,6.47
2018-03-22T02:29:56.452Z,6.67
2018-03-22T02:32:23.943Z,6.63
2018-03-22T02:34:51.433Z,6.53
2018-03-22T02:37:18.907Z,7.10
2018-03-22T02:39:46.373Z,6.63
2018-03-22T02:42:14.559Z,6.87
2018-03-22T02:44:42.066Z,6.60
2018-03-22T02:47:09.517Z,7.53
2018-03-22T02:49:36.972Z,6.50
2018-03-22T02:52:04.415Z,7.33
2018-03-22T02:54:31.867Z,8.00
2018-03-22T02:56:59.328Z,7.00
2018-03-22T02:59:26.956Z,6.90
2018-03-22T03:01:54.407Z,7.60
2018-03-22T03:04:21.860Z,7.33
2018-03-22T03:06:49.369Z,7.50
2018-03-22T03:09:16.882Z,6.77
2018-03-22T03:11:44.332Z,7.80
2018-03-22T03:14:11.820Z,7.60
2018-03-22T03:16:39.272Z,6.97
2018-03-22T03:19:06.791Z,7.73
2018-03-22T03:21:34.264Z,7.77
2018-03-22T03:24:01.704Z,7.30
2018-03-22T03:26:29.186Z,7.20
2018-03-22T03:28:56.659Z,6.73
2018-03-22T03:31:24.109Z,7.27
2018-03-22T03:33:51.628Z,7.00
2018-03-22T03:36:19.086Z,7.47
2018-03-22T03:38:46.547Z,6.67
2018-03-22T03:41:13.998Z,6.20
2018-03-22T03:43:41.446Z,6.93
2018-03-22T03:46:08.994Z,7.50
2018-03-22T03:48:36.425Z,7.23
2018-03-22T03:51:03.920Z,6.63
2018-03-22T03:53:31.370Z,6.60
2018-03-22T03:55:58.824Z,6.77
2018-03-22T03:58:26.282Z,6.80
2018-03-22T04:00:53.740Z,6.60
2018-03-22T04:03:21.220Z,6.80
2018-03-22T04:05:48.650Z,7.37
2018-03-22T04:08:16.092Z,6.90
2018-03-22T04:10:43.589Z,7.20
2018-03-22T04:13:11.048Z,6.77
2018-03-22T04:15:38.526Z,7.37
2018-03-22T04:18:05.986Z,6.33
2018-03-22T04:20:33.432Z,7.10
2018-03-22T04:23:00.892Z,7.23
2018-03-22T04:25:28.360Z,7.40
2018-03-22T04:27:55.871Z,7.33
2018-03-22T04:30:23.367Z,7.80
2018-03-22T04:32:50.807Z,8.00
2018-03-22T04:35:18.301Z,7.97
2018-03-22T04:37:45.779Z,8.23
2018-03-22T04:40:13.240Z,8.13
2018-03-22T04:42:41.168Z,7.97
2018-03-22T04:45:09.339Z,8.10
2018-03-22T04:47:36.826Z,8.53
2018-03-22T04:50:04.286Z,8.90
2018-03-22T04:52:31.741Z,8.53
2018-03-22T04:54:59.203Z,9.13
2018-03-22T04:57:26.651Z,9.27
2018-03-22T04:59:54.169Z,8.73
2018-03-22T05:02:21.631Z,8.37
2018-03-22T05:04:49.066Z,8.77
2018-03-22T05:07:16.641Z,8.50
2018-03-22T05:09:44.081Z,8.43
2018-03-22T05:12:11.580Z,8.90
2018-03-22T05:14:39.089Z,8.53
2018-03-22T05:17:06.543Z,9.03
2018-03-22T05:19:34.072Z,8.57
2018-03-22T05:22:01.532Z,8.40
2018-03-22T05:24:29.029Z,9.20
2018-03-22T05:26:56.532Z,9.23
2018-03-22T05:29:24.007Z,8.63
2018-03-22T05:31:51.535Z,8.57
2018-03-22T05:34:19.007Z,9.50
2018-03-22T05:36:46.481Z,9.57
2018-03-22T05:39:14.015Z,9.63
2018-03-22T05:41:41.503Z,9.70
2018-03-22T05:44:09.055Z,9.13
2018-03-22T05:46:36.508Z,9.43
2018-03-22T05:49:04.081Z,11.20
2018-03-22T05:51:31.711Z,10.23
2018-03-22T05:53:59.172Z,10.33
2018-03-22T05:56:27.467Z,9.53
2018-03-22T05:58:54.922Z,10.43
2018-03-22T06:01:22.397Z,11.00
2018-03-22T06:03:49.863Z,10.10
2018-03-22T06:06:17.368Z,10.63
2018-03-22T06:08:45.277Z,11.00
2018-03-22T06:11:12.755Z,10.53
2018-03-22T06:13:40.309Z,10.90
2018-03-22T06:16:07.795Z,10.60
2018-03-22T06:18:35.291Z,12.47
2018-03-22T06:21:02.769Z,11.97
2018-03-22T06:23:30.233Z,11.50
2018-03-22T06:25:57.695Z,11.13
2018-03-22T06:28:25.205Z,11.83
2018-03-22T06:30:52.725Z,12.47
2018-03-22T06:33:20.265Z,12.03
2018-03-22T06:35:47.727Z,12.97
2018-03-22T06:38:16.921Z,12.83
2018-03-22T06:40:45.353Z,12.93
2018-03-22T06:43:12.809Z,13.00
2018-03-22T06:45:40.298Z,12.20
2018-03-22T06:48:08.021Z,12.73
2018-03-22T06:50:36.509Z,13.30
2018-03-22T06:53:03.996Z,12.87
2018-03-22T06:55:31.527Z,13.37
2018-03-22T06:57:59.303Z,12.80
2018-03-22T07:00:26.809Z,12.60
2018-03-22T07:02:54.361Z,11.97
2018-03-22T07:05:21.861Z,13.93
2018-03-22T07:07:49.352Z,13.87
2018-03-22T07:10:16.803Z,13.40
2018-03-22T07:12:45.141Z,13.50
2018-03-22T07:15:12.609Z,13.93
2018-03-22T07:17:40.100Z,11.93
2018-03-22T07:20:07.659Z,12.67
2018-03-22T07:22:35.115Z,14.37
2018-03-22T07:25:02.573Z,13.10
2018-03-22T07:27:41.599Z,12.77
2018-03-22T07:30:09.093Z,11.60
2018-03-22T07:32:37.490Z,12.33
2018-03-22T07:35:05.043Z,13.70
2018-03-22T07:37:33.615Z,12.77
2018-03-22T07:40:01.075Z,12.10
2018-03-22T07:42:28.720Z,14.40
2018-03-22T07:44:56.186Z,12.37
2018-03-22T07:47:23.666Z,13.20
2018-03-22T07:49:51.210Z,14.37
2018-03-22T07:52:18.695Z,12.47
2018-03-22T07:54:46.225Z,15.97
2018-03-22T07:57:13.744Z,14.80
2018-03-22T07:59:41.263Z,14.53
2018-03-22T08:02:08.758Z,14.47
2018-03-22T08:04:36.244Z,15.30
2018-03-22T08:07:03.778Z,13.93
2018-03-22T08:09:31.567Z,15.67
2018-03-22T08:11:59.094Z,14.23
2018-03-22T08:14:26.592Z,14.87
2018-03-22T08:16:54.217Z,13.33
2018-03-22T08:19:21.736Z,14.57
2018-03-22T08:21:50.659Z,14.33
2018-03-22T08:24:18.243Z,14.90
2018-03-22T08:26:45.748Z,15.03
2018-03-22T08:29:13.240Z,15.10
2018-03-22T08:31:40.794Z,14.07
2018-03-22T08:34:08.364Z,17.33
2018-03-22T08:36:35.844Z,14.73
2018-03-22T08:39:03.447Z,16.47
2018-03-22T08:41:30.960Z,15.70
2018-03-22T08:43:58.416Z,16.90
2018-03-22T08:46:25.908Z,16.40
2018-03-22T08:48:53.454Z,16.90
2018-03-22T08:51:20.986Z,18.63
2018-03-22T08:53:49.252Z,18.30
2018-03-22T08:56:16.738Z,18.73
2018-03-22T08:58:44.235Z,19.40
2018-03-22T09:01:11.693Z,19.67
2018-03-22T09:03:39.176Z,19.03
2018-03-22T09:06:06.786Z,19.83
2018-03-22T09:08:34.336Z,20.03
2018-03-22T09:11:01.876Z,19.77
2018-03-22T09:13:29.416Z,19.47
2018-03-22T09:15:56.884Z,20.57
2018-03-22T09:18:24.550Z,19.77
2018-03-22T09:20:52.053Z,21.53
2018-03-22T09:23:19.566Z,19.90
2018-03-22T09:25:47.484Z,20.10
2018-03-22T09:28:15.000Z,20.47
2018-03-22T09:30:42.546Z,21.73
2018-03-22T09:33:10.008Z,21.93
2018-03-22T09:35:37.600Z,21.53
2018-03-22T09:38:05.118Z,20.87
2018-03-22T09:40:32.590Z,24.00
2018-03-22T09:43:00.087Z,21.90
2018-03-22T09:45:29.145Z,23.07
2018-03-22T09:47:57.152Z,22.40
2018-03-22T09:50:24.676Z,24.03
2018-03-22T09:52:52.266Z,22.97
2018-03-22T09:55:20.914Z,21.43
2018-03-22T09:57:48.394Z,22.47
2018-03-22T10:00:15.842Z,22.73
2018-03-22T10:02:43.389Z,22.10
2018-03-22T10:05:10.931Z,22.50
2018-03-22T10:07:38.552Z,23.30
2018-03-22T10:10:06.081Z,23.53
2018-03-22T10:12:33.524Z,22.20
2018-03-22T10:15:00.978Z,22.90
2018-03-22T10:17:28.448Z,20.97
2018-03-22T10:19:56.918Z,21.77
2018-03-22T10:22:24.444Z,23.80
2018-03-22T10:24:51.939Z,23.27
2018-03-22T10:27:19.396Z,24.43
2018-03-22T10:29:46.903Z,22.87
2018-03-22T10:32:14.398Z,22.60
2018-03-22T10:34:41.884Z,21.70
2018-03-22T10:37:09.422Z,22.17
2018-03-22T10:39:37.004Z,23.30
2018-03-22T10:42:04.526Z,23.10
2018-03-22T10:44:32.206Z,25.20
2018-03-22T10:46:59.728Z,21.33
2018-03-22T10:49:27.246Z,23.40
2018-03-22T10:51:54.702Z,26.57
2018-03-22T10:54:22.342Z,23.10
2018-03-22T10:56:50.818Z,25.17
2018-03-22T10:59:18.421Z,22.53
2018-03-22T11:01:51.620Z,22.73
2018-03-22T11:04:20.926Z,23.00
2018-03-22T11:06:48.622Z,23.00
2018-03-22T11:09:21.216Z,23.03
2018-03-22T11:11:48.743Z,25.13
2018-03-22T11:14:16.294Z,24.10
2018-03-22T11:16:44.904Z,26.13
2018-03-22T11:19:12.521Z,24.60
2018-03-22T11:21:40.065Z,26.57
2018-03-22T11:24:07.622Z,23.70
2018-03-22T11:26:35.170Z,23.83
2018-03-22T11:29:02.704Z,23.57
2018-03-22T11:31:30.250Z,23.57
2018-03-22T11:33:57.734Z,24.23
2018-03-22T11:36:25.375Z,24.50
2018-03-22T11:38:52.900Z,24.33
2018-03-22T11:41:20.526Z,24.83
2018-03-22T11:43:47.974Z,24.43
2018-03-22T11:46:15.555Z,27.90
2018-03-22T11:48:43.083Z,24.63
2018-03-22T11:51:10.568Z,27.40
2018-03-22T11:53:38.024Z,28.53
2018-03-22T11:56:05.902Z,24.77
2018-03-22T11:58:33.420Z,25.30
2018-03-22T12:01:00.904Z,28.33
2018-03-22T12:03:28.386Z,25.03
2018-03-22T12:05:55.940Z,25.77
2018-03-22T12:08:24.408Z,27.07
2018-03-22T12:10:51.972Z,28.97
2018-03-22T12:13:19.462Z,26.00
2018-03-22T12:15:46.966Z,26.13
2018-03-22T12:18:14.500Z,26.13
2018-03-22T12:20:41.989Z,28.53
2018-03-22T12:23:09.516Z,24.57
2018-03-22T12:25:37.023Z,26.43
2018-03-22T12:28:05.108Z,25.10
2018-03-22T12:30:32.620Z,25.07
2018-03-22T12:33:00.115Z,24.30
2018-03-22T12:35:27.610Z,23.63
2018-03-22T12:37:55.121Z,24.47
2018-03-22T12:40:22.698Z,29.37
2018-03-22T12:42:50.176Z,24.87
2018-03-22T12:45:17.912Z,26.30
2018-03-22T12:47:45.360Z,25.60
2018-03-22T12:50:12.879Z,25.30
2018-03-22T12:52:40.372Z,27.50
2018-03-22T12:55:07.896Z,24.67
2018-03-22T12:57:35.410Z,25.90
2018-03-22T13:00:02.924Z,25.10
2018-03-22T13:02:30.428Z,24.33
2018-03-22T13:04:57.940Z,24.97
2018-03-22T13:07:25.409Z,25.37
2018-03-22T13:09:52.890Z,25.30
2018-03-22T13:12:20.378Z,24.33
2018-03-22T13:14:48.121Z,24.80
2018-03-22T13:17:15.593Z,24.80
2018-03-22T13:19:43.054Z,25.57
2018-03-22T13:22:10.569Z,26.67
2018-03-22T13:24:38.069Z,26.03
2018-03-22T13:27:05.558Z,25.63
2018-03-22T13:29:42.639Z,25.83
2018-03-22T13:32:10.372Z,24.57
2018-03-22T13:34:37.843Z,24.87
2018-03-22T13:37:05.955Z,26.00
2018-03-22T13:39:33.493Z,26.67
2018-03-22T13:42:00.991Z,27.10
2018-03-22T13:44:28.531Z,26.57
2018-03-22T13:46:56.015Z,25.97
2018-03-22T13:49:24.403Z,25.47
2018-03-22T13:51:52.048Z,25.73
2018-03-22T13:54:20.123Z,24.80
2018-03-22T13:56:47.635Z,25.33
2018-03-22T13:59:15.322Z,26.83
2018-03-22T14:01:42.923Z,25.73
2018-03-22T14:04:11.035Z,25.80
2018-03-22T14:06:38.533Z,25.60
2018-03-22T14:09:07.023Z,27.17
2018-03-22T14:11:35.417Z,25.90
2018-03-22T14:14:03.177Z,26.27
2018-03-22T14:16:30.823Z,25.90
2018-03-22T14:18:58.319Z,30.03
2018-03-22T14:21:25.931Z,26.63
2018-03-22T14:23:53.521Z,24.93
2018-03-22T14:26:21.344Z,29.37
2018-03-22T14:28:48.887Z,25.33
2018-03-22T14:31:16.352Z,26.13
2018-03-22T14:33:43.866Z,28.80
2018-03-22T14:36:11.321Z,25.03
2018-03-22T14:38:38.829Z,24.77
2018-03-22T14:41:06.335Z,29.13
2018-03-22T14:43:33.838Z,23.60
2018-03-22T14:46:01.363Z,24.27
2018-03-22T14:48:28.849Z,23.80
2018-03-22T14:50:56.353Z,29.03
2018-03-22T14:53:23.840Z,24.90
2018-03-22T14:55:51.397Z,24.13
2018-03-22T14:58:18.929Z,23.90
2018-03-22T15:00:46.441Z,23.90
2018-03-22T15:03:13.915Z,23.77
2018-03-22T15:05:41.491Z,24.20
2018-03-22T15:08:09.015Z,22.67
2018-03-22T15:10:36.587Z,22.33
2018-03-22T15:13:04.069Z,25.40
2018-03-22T15:15:32.115Z,22.63
2018-03-22T15:17:59.698Z,23.07
2018-03-22T15:20:27.219Z,21.10
2018-03-22T15:22:54.775Z,23.77
2018-03-22T15:25:22.263Z,24.07
2018-03-22T15:27:49.765Z,21.87
2018-03-22T15:30:17.491Z,22.80
2018-03-22T15:32:44.956Z,22.53
2018-03-22T15:35:12.466Z,22.07
2018-03-22T15:37:41.006Z,23.03
2018-03-22T15:40:08.473Z,21.97
2018-03-22T15:42:35.963Z,21.50
2018-03-22T15:45:03.461Z,22.07
2018-03-22T15:47:30.965Z,26.10
2018-03-22T15:49:58.471Z,22.00
2018-03-22T15:52:25.992Z,22.03
2018-03-22T15:54:53.467Z,22.33
2018-03-22T15:57:20.939Z,22.53
2018-03-22T15:59:48.526Z,22.13
2018-03-22T16:02:16.013Z,20.93
2018-03-22T16:04:43.501Z,21.27
2018-03-22T16:07:11.190Z,22.07
2018-03-22T16:09:38.692Z,22.13
2018-03-22T16:12:06.498Z,25.23
2018-03-22T16:14:34.046Z,19.90
2018-03-22T16:17:01.598Z,20.83
2018-03-22T16:19:29.113Z,23.20
2018-03-22T16:21:56.584Z,20.13
2018-03-22T16:24:24.102Z,20.73
2018-03-22T16:26:51.613Z,20.10
2018-03-22T16:29:19.102Z,20.43
2018-03-22T16:31:46.592Z,20.63
2018-03-22T16:34:14.095Z,21.10
2018-03-22T16:36:42.518Z,20.10
2018-03-22T16:39:09.995Z,19.77
2018-03-22T16:41:37.490Z,23.40
2018-03-22T16:44:04.983Z,19.97
2018-03-22T16:46:32.460Z,18.17
2018-03-22T16:49:00.003Z,19.73
2018-03-22T16:51:27.541Z,18.17
2018-03-22T16:53:55.037Z,20.90
2018-03-22T16:56:22.603Z,18.33
2018-03-22T16:58:50.208Z,18.90
2018-03-22T17:01:17.711Z,19.03
2018-03-22T17:03:45.259Z,19.37
2018-03-22T17:06:12.773Z,19.13
2018-03-22T17:08:40.376Z,17.70
2018-03-22T17:11:07.935Z,18.10
2018-03-22T17:13:35.694Z,19.40
2018-03-22T17:16:03.275Z,20.20
2018-03-22T17:18:30.746Z,19.00
2018-03-22T17:20:58.293Z,19.40
2018-03-22T17:23:25.767Z,19.33
2018-03-22T17:25:53.250Z,17.43
2018-03-22T17:28:20.704Z,18.93
2018-03-22T17:30:48.191Z,19.20
2018-03-22T17:33:15.709Z,22.10
2018-03-22T17:35:43.220Z,21.40
2018-03-22T17:38:10.726Z,21.17
2018-03-22T17:40:38.219Z,22.70
2018-03-22T17:43:05.730Z,20.67
2018-03-22T17:45:33.212Z,23.30
2018-03-22T17:48:00.743Z,20.63
2018-03-22T17:50:28.669Z,19.80
2018-03-22T17:52:56.124Z,20.33
2018-03-22T17:55:23.617Z,21.03
2018-03-22T17:57:51.159Z,20.07
2018-03-22T18:00:19.231Z,21.63
2018-03-22T18:02:46.703Z,21.90
2018-03-22T18:05:14.244Z,21.10
2018-03-22T18:07:41.709Z,21.43
2018-03-22T18:10:09.207Z,21.50
2018-03-22T18:12:36.908Z,20.37
2018-03-22T18:15:04.423Z,20.87
2018-03-22T18:17:31.909Z,24.47
2018-03-22T18:19:59.389Z,21.27
2018-03-22T18:22:26.886Z,20.60
2018-03-22T18:24:54.432Z,22.17
2018-03-22T18:27:22.031Z,22.33
2018-03-22T18:29:49.571Z,22.43
2018-03-22T18:32:17.103Z,21.57
2018-03-22T18:34:44.606Z,24.30
2018-03-22T18:37:12.134Z,25.57
2018-03-22T18:39:39.579Z,23.97
2018-03-22T18:42:07.044Z,21.97
2018-03-22T18:44:34.508Z,23.50
2018-03-22T18:47:02.113Z,24.20
2018-03-22T18:49:29.587Z,23.70
2018-03-22T18:51:57.089Z,23.63
2018-03-22T18:54:24.526Z,22.37
2018-03-22T18:56:52.008Z,21.93
2018-03-22T18:59:20.537Z,23.00
2018-03-22T19:01:48.035Z,22.80
2018-03-22T19:04:15.583Z,22.90
2018-03-22T19:06:43.056Z,22.37
2018-03-22T19:09:10.544Z,22.00
2018-03-22T19:11:38.047Z,24.40
2018-03-22T19:14:05.550Z,23.77
2018-03-22T19:16:33.060Z,23.60
2018-03-22T19:19:00.520Z,24.03
2018-03-22T19:21:28.089Z,24.33
2018-03-22T19:23:55.651Z,24.57
2018-03-22T19:26:23.199Z,23.50
2018-03-22T19:28:50.781Z,25.23
2018-03-22T19:31:18.257Z,23.27
2018-03-22T19:33:46.752Z,23.03
2018-03-22T19:36:14.233Z,22.40
2018-03-22T19:38:41.709Z,22.13
2018-03-22T19:41:09.286Z,22.20
2018-03-22T19:43:36.809Z,20.80
2018-03-22T19:46:04.273Z,21.17
2018-03-22T19:48:31.738Z,21.30
2018-03-22T19:50:59.269Z,20.90
2018-03-22T19:53:26.777Z,20.67
2018-03-22T19:55:54.332Z,21.80
2018-03-22T19:58:22.792Z,21.20
2018-03-22T20:00:50.369Z,20.90
2018-03-22T20:03:17.879Z,21.47
2018-03-22T20:05:45.520Z,21.73
2018-03-22T20:08:13.052Z,22.83
2018-03-22T20:10:40.594Z,21.73
2018-03-22T20:13:08.056Z,22.80
2018-03-22T20:15:35.575Z,22.23
2018-03-22T20:18:03.190Z,22.70
2018-03-22T20:20:30.653Z,22.47
2018-03-22T20:22:58.316Z,25.53
2018-03-22T20:25:25.945Z,22.43
2018-03-22T20:27:53.532Z,25.67
2018-03-22T20:30:20.983Z,22.67
2018-03-22T20:32:48.884Z,22.67
2018-03-22T20:35:16.337Z,26.97
2018-03-22T20:37:43.798Z,23.47
2018-03-22T20:40:11.360Z,23.90
2018-03-22T20:42:38.900Z,23.03
2018-03-22T20:45:06.682Z,25.83
2018-03-22T20:47:34.214Z,22.83
2018-03-22T20:50:01.694Z,23.23
2018-03-22T20:52:29.188Z,23.17
2018-03-22T20:54:56.706Z,26.40
2018-03-22T20:57:24.882Z,24.00
2018-03-22T20:59:52.430Z,25.27
2018-03-22T21:02:19.906Z,23.50
2018-03-22T21:04:47.425Z,27.47
2018-03-22T21:07:14.961Z,23.80
2018-03-22T21:09:42.462Z,25.80
2018-03-22T21:12:09.940Z,23.97
2018-03-22T21:14:37.416Z,25.47
2018-03-22T21:17:05.787Z,23.03
2018-03-22T21:19:33.309Z,22.50
2018-03-22T21:22:01.175Z,23.50
2018-03-22T21:24:28.676Z,24.70
2018-03-22T21:26:56.302Z,26.07
2018-03-22T21:29:28.760Z,24.10
2018-03-22T21:31:56.416Z,24.80
2018-03-22T21:34:24.610Z,24.83
2018-03-22T21:36:52.226Z,24.40
2018-03-22T21:39:21.507Z,24.53
2018-03-22T21:44:41.360Z,24.17
2018-03-22T21:49:58.903Z,24.60
2018-03-22T21:52:38.454Z,25.37
2018-03-22T21:55:05.937Z,27.03
2018-03-22T21:57:33.384Z,25.53
2018-03-22T22:00:00.869Z,25.50
2018-03-22T22:02:28.333Z,28.40
2018-03-22T22:04:56.209Z,25.03
2018-03-22T22:07:23.775Z,26.20
2018-03-22T22:09:51.341Z,27.83
2018-03-22T22:12:18.861Z,27.20
2018-03-22T22:14:46.350Z,28.53
2018-03-22T22:17:13.822Z,25.87
2018-03-22T22:19:41.367Z,27.47
2018-03-22T22:22:08.895Z,26.80
2018-03-22T22:24:36.453Z,26.33
2018-03-22T22:27:03.976Z,26.83
2018-03-22T22:29:31.459Z,27.73
2018-03-22T22:31:59.005Z,28.60
2018-03-22T22:34:26.490Z,28.00
2018-03-22T22:36:53.986Z,26.03
2018-03-22T22:39:21.505Z,26.33
2018-03-22T22:41:49.356Z,27.93
2018-03-22T22:44:16.888Z,26.63
2018-03-22T22:46:44.333Z,26.50
2018-03-22T22:49:11.817Z,30.97
2018-03-22T22:51:39.285Z,27.23
2018-03-22T22:54:06.835Z,28.20
2018-03-22T22:56:34.422Z,30.30
2018-03-22T22:59:01.903Z,27.60
2018-03-22T23:01:30.238Z,25.33
2018-03-22T23:03:57.696Z,31.83
2018-03-22T23:06:25.224Z,28.70
2018-03-22T23:08:53.286Z,27.07
2018-03-22T23:11:20.747Z,29.70
2018-03-22T23:13:48.223Z,28.60
2018-03-22T23:16:15.665Z,26.97
2018-03-22T23:18:43.148Z,28.87
2018-03-22T23:21:10.619Z,28.40
2018-03-22T23:23:38.057Z,28.77
2018-03-22T23:26:05.598Z,28.57
2018-03-22T23:28:33.067Z,30.70
2018-03-22T23:31:00.577Z,28.07
2018-03-22T23:33:28.028Z,32.60
2018-03-22T23:35:55.551Z,27.30
2018-03-22T23:38:23.083Z,27.47
2018-03-22T23:40:50.589Z,29.43
2018-03-22T23:43:18.063Z,27.17
2018-03-22T23:45:45.615Z,29.77
2018-03-22T23:48:13.068Z,28.20
2018-03-22T23:50:40.556Z,32.00
2018-03-22T23:53:08.051Z,27.63
2018-03-22T23:55:35.619Z,29.13
2018-03-22T23:58:03.101Z,28.80
